createdAt,value
2023-01-17T00:02:52.638Z,4.83
2023-01-17T00:08:19.138Z,5.83
2023-01-17T00:13:24.404Z,4.13
2023-01-17T00:18:29.703Z,6.10
2023-01-17T00:23:43.186Z,4.73
2023-01-17T00:28:48.554Z,5.00
2023-01-17T00:33:54.121Z,4.73
2023-01-17T00:38:58.694Z,5.70
2023-01-17T00:44:21.460Z,4.47
2023-01-17T00:49:44.502Z,5.07
2023-01-17T00:55:07.494Z,4.40
2023-01-17T01:00:30.818Z,3.87
2023-01-17T01:05:55.462Z,3.60
2023-01-17T01:11:30.137Z,3.00
2023-01-17T01:16:53.331Z,3.23
2023-01-17T01:22:16.245Z,4.27
2023-01-17T01:27:39.200Z,3.50
2023-01-17T01:33:02.270Z,3.50
2023-01-17T01:38:07.528Z,3.63
2023-01-17T01:43:18.221Z,3.13
2023-01-17T01:48:38.380Z,3.13
2023-01-17T01:53:47.270Z,3.97
2023-01-17T01:58:54.717Z,4.73
2023-01-17T02:04:02.688Z,5.80
2023-01-17T02:09:12.018Z,3.77
2023-01-17T02:14:21.038Z,6.73
2023-01-17T02:19:50.507Z,7.37
2023-01-17T02:25:01.467Z,4.47
2023-01-17T02:30:34.990Z,4.00
2023-01-17T02:35:43.239Z,5.13
2023-01-17T02:40:57.231Z,4.63
2023-01-17T02:46:02.501Z,5.33
2023-01-17T02:51:28.637Z,5.27
2023-01-17T02:56:59.471Z,6.70
2023-01-17T03:02:26.940Z,5.63
2023-01-17T03:07:55.936Z,6.43
2023-01-17T03:13:11.761Z,4.67
2023-01-17T03:18:18.618Z,5.27
2023-01-17T03:23:26.996Z,3.77
2023-01-17T03:28:50.033Z,6.27
2023-01-17T03:33:56.376Z,5.13
2023-01-17T03:39:06.828Z,4.57
2023-01-17T03:44:13.009Z,4.77
2023-01-17T03:49:19.320Z,4.70
2023-01-17T03:54:42.781Z,4.13
2023-01-17T03:59:50.223Z,4.43
2023-01-17T04:04:57.333Z,3.63
2023-01-17T04:10:03.606Z,4.67
2023-01-17T04:15:09.452Z,4.17
2023-01-17T04:20:33.381Z,4.10
2023-01-17T04:25:42.324Z,4.80
2023-01-17T04:30:51.855Z,4.30
2023-01-17T04:36:01.108Z,4.47
2023-01-17T04:41:12.018Z,4.80
2023-01-17T04:46:19.786Z,4.77
2023-01-17T04:51:29.311Z,4.33
2023-01-17T04:56:35.825Z,3.70
2023-01-17T05:01:44.453Z,4.40
2023-01-17T05:06:49.694Z,5.40
2023-01-17T05:11:55.894Z,5.33
2023-01-17T05:17:06.624Z,6.57
2023-01-17T05:22:17.140Z,5.23
2023-01-17T05:27:29.170Z,5.60
2023-01-17T05:32:41.400Z,5.80
2023-01-17T05:37:55.470Z,6.63
2023-01-17T05:48:39.475Z,5.10
2023-01-17T05:53:56.902Z,5.43
2023-01-17T06:04:42.982Z,5.43
2023-01-17T06:15:58.407Z,4.50
2023-01-17T06:21:10.947Z,5.07
2023-01-17T06:26:38.699Z,4.73
2023-01-17T06:31:52.332Z,4.73
2023-01-17T06:37:00.150Z,4.57
2023-01-17T06:42:28.763Z,4.13
2023-01-17T06:47:37.821Z,4.70
2023-01-17T06:52:48.281Z,4.80
2023-01-17T06:58:01.531Z,4.03
2023-01-17T07:03:31.562Z,3.93
2023-01-17T07:26:42.172Z,4.47
2023-01-17T07:37:51.861Z,5.67
2023-01-17T07:48:52.744Z,2.97
2023-01-17T07:54:42.192Z,4.47
2023-01-17T08:12:02.735Z,5.33
2023-01-17T08:17:40.753Z,3.13
2023-01-17T08:23:01.206Z,4.37
2023-01-17T08:40:34.292Z,2.90
2023-01-17T08:46:02.796Z,2.77
2023-01-17T08:51:45.881Z,3.53
2023-01-17T08:56:46.251Z,3.77
2023-01-17T09:01:58.732Z,3.53
2023-01-17T09:13:09.238Z,1.53
2023-01-17T09:18:23.195Z,3.80
2023-01-17T09:29:16.193Z,4.77
2023-01-17T09:34:40.968Z,5.63
2023-01-17T09:46:07.936Z,5.03
2023-01-17T09:51:27.352Z,4.50
2023-01-17T10:02:56.128Z,5.17
2023-01-17T10:08:23.902Z,4.13
2023-01-17T10:14:01.724Z,5.00
2023-01-17T10:19:25.760Z,4.50
2023-01-17T10:25:17.413Z,2.07
2023-01-17T10:30:49.169Z,2.17
2023-01-17T10:36:02.958Z,2.60
2023-01-17T10:41:34.604Z,3.20
2023-01-17T10:47:02.258Z,1.13
2023-01-17T10:52:39.634Z,1.93
2023-01-17T10:57:52.371Z,1.77
2023-01-17T11:02:59.944Z,1.43
2023-01-17T11:08:16.504Z,2.10
2023-01-17T11:13:34.380Z,2.40
2023-01-17T11:18:42.131Z,2.30
2023-01-17T11:23:51.033Z,1.63
2023-01-17T11:29:16.588Z,2.17
2023-01-17T11:34:29.308Z,2.17
2023-01-17T11:39:34.727Z,1.80
2023-01-17T11:44:40.100Z,1.77
2023-01-17T11:49:48.319Z,2.77
2023-01-17T11:54:56.385Z,1.70
2023-01-17T12:00:25.007Z,2.03
2023-01-17T12:05:43.277Z,2.63
2023-01-17T12:10:54.248Z,2.70
2023-01-17T12:16:32.381Z,1.60
2023-01-17T12:21:43.614Z,1.80
2023-01-17T12:26:55.279Z,1.87
2023-01-17T12:32:12.286Z,1.40
2023-01-17T12:37:26.629Z,1.77
2023-01-17T12:42:39.151Z,1.30
2023-01-17T12:47:47.854Z,1.03
2023-01-17T12:53:05.640Z,1.30
2023-01-17T12:58:13.982Z,1.30
2023-01-17T13:03:23.952Z,1.20
2023-01-17T13:08:39.748Z,1.20
2023-01-17T13:13:59.727Z,1.00
2023-01-17T13:24:37.576Z,1.37
2023-01-17T13:29:48.729Z,1.30
2023-01-17T13:35:10.827Z,1.07
2023-01-17T13:40:41.317Z,1.00
2023-01-17T13:46:03.970Z,0.93
2023-01-17T13:51:14.676Z,1.47
2023-01-17T13:56:33.051Z,1.03
2023-01-17T14:01:52.392Z,0.67
2023-01-17T14:07:01.542Z,1.90
2023-01-17T14:12:37.004Z,1.40
2023-01-17T14:18:12.038Z,1.97
2023-01-17T14:23:40.268Z,5.57
2023-01-17T14:28:46.501Z,7.73
2023-01-17T14:33:52.073Z,5.80
2023-01-17T14:39:07.171Z,4.60
2023-01-17T14:44:31.898Z,8.63
2023-01-17T14:49:57.026Z,5.33
2023-01-17T14:55:09.842Z,18.70
2023-01-17T15:00:26.975Z,12.77
2023-01-17T15:05:40.387Z,6.83
2023-01-17T15:16:38.541Z,4.00
2023-01-17T15:21:45.384Z,5.60
2023-01-17T15:26:51.232Z,5.97
2023-01-17T15:31:59.609Z,3.13
2023-01-17T15:37:23.425Z,4.07
2023-01-17T15:42:34.344Z,2.20
2023-01-17T15:47:40.305Z,2.83
2023-01-17T15:52:50.290Z,1.93
2023-01-17T15:57:57.969Z,1.90
2023-01-17T16:03:10.172Z,1.20
2023-01-17T16:08:40.863Z,1.40
2023-01-17T16:19:22.822Z,2.67
2023-01-17T16:24:44.085Z,2.27
2023-01-17T16:29:51.231Z,2.57
2023-01-17T16:35:01.404Z,2.03
2023-01-17T16:40:21.290Z,1.73
2023-01-17T16:45:50.568Z,2.80
2023-01-17T16:50:57.864Z,2.23
2023-01-17T16:56:26.509Z,1.80
2023-01-17T17:01:32.547Z,2.83
2023-01-17T17:06:43.516Z,1.00
2023-01-17T17:12:03.055Z,1.67
2023-01-17T17:17:13.004Z,1.37
2023-01-17T17:22:32.068Z,1.40
2023-01-17T17:27:44.739Z,1.53
2023-01-17T17:32:55.886Z,2.07
2023-01-17T17:38:08.341Z,1.47
2023-01-17T17:43:28.599Z,1.20
2023-01-17T17:49:04.679Z,0.93
2023-01-17T17:54:31.286Z,1.97
2023-01-17T17:59:38.230Z,2.30
2023-01-17T18:04:43.675Z,2.33
2023-01-17T18:09:49.581Z,4.90
2023-01-17T18:14:57.516Z,1.63
2023-01-17T18:20:07.741Z,1.97
2023-01-17T18:25:17.174Z,4.90
2023-01-17T18:30:23.379Z,10.80
2023-01-17T18:35:29.254Z,3.93
2023-01-17T18:40:37.416Z,3.23
2023-01-17T18:45:48.087Z,2.10
2023-01-17T18:51:01.765Z,4.77
2023-01-17T18:56:14.988Z,2.93
2023-01-17T19:01:29.212Z,2.43
2023-01-17T19:06:43.298Z,1.90
2023-01-17T19:11:53.700Z,3.73
2023-01-17T19:17:02.573Z,2.60
2023-01-17T19:22:08.001Z,8.27
2023-01-17T19:27:14.098Z,21.17
2023-01-17T19:32:19.629Z,30.00
2023-01-17T19:37:25.607Z,17.47
2023-01-17T19:42:31.017Z,4.93
2023-01-17T19:47:38.064Z,3.50
2023-01-17T19:52:43.390Z,3.93
2023-01-17T19:57:48.882Z,2.47
2023-01-17T20:02:54.295Z,4.67
2023-01-17T20:07:59.829Z,2.97
2023-01-17T20:13:06.322Z,4.13
2023-01-17T20:18:12.832Z,4.27
2023-01-17T20:23:19.615Z,3.90
2023-01-17T20:28:30.215Z,4.43
2023-01-17T20:33:36.247Z,3.13
2023-01-17T20:38:44.838Z,4.47
2023-01-17T20:43:55.094Z,5.87
2023-01-17T20:49:07.870Z,3.20
2023-01-17T20:54:18.812Z,3.23
2023-01-17T20:59:24.999Z,3.53
2023-01-17T21:04:31.502Z,3.03
2023-01-17T21:09:45.849Z,3.17
2023-01-17T21:14:54.041Z,3.13
2023-01-17T21:20:01.984Z,2.67
2023-01-17T21:25:10.350Z,2.93
2023-01-17T21:30:17.805Z,2.73
2023-01-17T21:35:23.153Z,2.77
2023-01-17T21:40:28.727Z,3.83
2023-01-17T21:45:39.169Z,3.90
2023-01-17T21:50:53.243Z,5.43
2023-01-17T21:56:29.419Z,4.87
2023-01-17T22:01:35.189Z,5.73
2023-01-17T22:06:53.595Z,6.17
2023-01-17T22:12:08.732Z,7.43
2023-01-17T22:17:21.984Z,9.53
2023-01-17T22:22:30.252Z,4.27
2023-01-17T22:27:35.500Z,3.77
2023-01-17T22:32:41.760Z,3.60
2023-01-17T22:37:47.852Z,5.83
2023-01-17T22:42:53.250Z,3.73
2023-01-17T22:47:58.531Z,5.27
2023-01-17T22:53:03.797Z,5.30
2023-01-17T22:58:11.363Z,7.40
2023-01-17T23:03:17.367Z,5.50
2023-01-17T23:08:22.723Z,5.07
2023-01-17T23:13:28.092Z,6.13
2023-01-17T23:18:51.329Z,4.87
2023-01-17T23:23:56.616Z,5.10
2023-01-17T23:29:01.701Z,6.90
2023-01-17T23:34:07.693Z,6.87
2023-01-17T23:39:12.988Z,6.17
2023-01-17T23:44:18.298Z,5.60
2023-01-17T23:49:24.070Z,5.93
2023-01-17T23:54:29.221Z,6.73
2023-01-17T23:59:34.435Z,7.47
